Dolenn — FAA8887 — position and weather

sailwx.info

Track history (hours):
 
Tides and Currents Weather Stations Pressure Air Temp Water Temp Dewpoint Dewpoint Depression Visibility Wind Speed Wind Dir Waves Ship Positions

Dolenn

Last reported at 2018-Jun-16 15:44 UTC. Time now 2018-Jun-17 22:16 UTC.
Position N 48°24' W 004°26'.

Length 11 m.

Type: Sailing vessel. MMSI: 227167050.

Date/timePositionNaut miles runAvg speedWind from/ knotsBaromVisibWave heightAir tempDewpointWater temp
2018-Jun-16 15:44N 48°24' W 004°26'0 0.3
2018-Jun-16 15:28N 48°24' W 004°26'0 0.0
2018-Jun-16 11:22N 48°24' W 004°26'0 1.1
2018-Jun-16 11:00N 48°23' W 004°26'3 5.3
2018-Jun-16 10:30N 48°22' W 004°29'3 5.2
2018-Jun-16 10:00N 48°21' W 004°33'0 0.7
2018-Jun-16 09:30N 48°21' W 004°33'2 3.7
2018-Jun-16 09:00N 48°20' W 004°35'2 3.2
2018-Jun-16 08:30N 48°18' W 004°36'2 0.1
2018-Jun-15 20:20N 48°17' W 004°35'0 0.0
2018-Jun-15 19:59N 48°17' W 004°35'1 2.6
2018-Jun-15 19:30N 48°17' W 004°37'2 3.8
2018-Jun-15 19:00N 48°16' W 004°39'2 3.6
2018-Jun-15 18:30N 48°15' W 004°38'2 4.4
2018-Jun-15 18:00N 48°12' W 004°38'1 2.6
2018-Jun-15 17:30N 48°12' W 004°36'2 3.7
2018-Jun-15 17:00N 48°11' W 004°36'2 3.8
2018-Jun-15 16:30N 48°09' W 004°34'1 2.7
2018-Jun-15 15:58N 48°09' W 004°32'2 5.0
2018-Jun-15 15:30N 48°11' W 004°30'2 3.2
2018-Jun-15 15:00N 48°11' W 004°27'3 5.4
2018-Jun-15 14:30N 48°08' W 004°25'2 3.3
2018-Jun-15 14:00N 48°09' W 004°23'4 0.2
2018-Jun-14 17:48N 48°06' W 004°20'1 2.8
2018-Jun-14 17:18N 48°07' W 004°21'2 5.1
2018-Jun-14 16:58N 48°08' W 004°24'3 5.3
2018-Jun-14 16:22N 48°08' W 004°28'2 4.7
2018-Jun-14 15:58N 48°08' W 004°31'3 5.6
2018-Jun-14 15:30N 48°09' W 004°35'4 7.2
2018-Jun-14 15:00N 48°11' W 004°40'3 6.8
2018-Jun-14 14:30N 48°12' W 004°44'2 3.0
2018-Jun-14 14:00N 48°14' W 004°46'2 4.3
2018-Jun-14 13:30N 48°14' W 004°49'2 4.6
2018-Jun-14 13:00N 48°13' W 004°52'2 4.6
2018-Jun-14 12:28N 48°14' W 004°56'3 6.5
2018-Jun-14 11:58N 48°16' W 005°00'6 6.4
2018-Jun-14 10:58N 48°19' W 005°08'5 4.6
2018-Jun-14 09:58N 48°23' W 005°10'3 0.1
2018-Jun-13 13:09N 48°26' W 005°08'2 7.8
2018-Jun-13 12:53N 48°24' W 005°08'6 6.8
2018-Jun-13 12:03N 48°20' W 005°03'1 6.7
2018-Jun-13 11:58N 48°19' W 005°02'3 6.9
2018-Jun-13 11:30N 48°17' W 004°59'4 7.3
2018-Jun-13 11:00N 48°15' W 004°54'3 6.5
2018-Jun-13 10:30N 48°14' W 004°50'2 4.4
2018-Jun-13 10:00N 48°13' W 004°47'2 4.6
2018-Jun-13 09:30N 48°13' W 004°43'1 2.9
2018-Jun-13 09:00N 48°13' W 004°41'1 2.6
2018-Jun-13 08:30N 48°12' W 004°40'2 5.0
2018-Jun-13 08:00N 48°10' W 004°38'2 3.6
2018-Jun-13 07:30N 48°09' W 004°35'4 6.7
2018-Jun-13 06:58N 48°11' W 004°31'2 4.9
2018-Jun-13 06:30N 48°13' W 004°30'0 0.0
2018-Jun-12 20:14N 48°13' W 004°30'0 0.0
2018-Jun-12 19:53N 48°13' W 004°30'0 0.0
2018-Jun-12 19:23N 48°13' W 004°30'0 0.0
2018-Jun-12 18:56N 48°13' W 004°30'0 0.0
2018-Jun-12 18:29N 48°13' W 004°30'0 0.0
2018-Jun-12 17:56N 48°13' W 004°30'0 0.0
2018-Jun-12 14:36N 48°13' W 004°30'0 1.4
2018-Jun-12 14:28N 48°14' W 004°30'1 2.7
2018-Jun-12 14:00N 48°12' W 004°29'2 3.6
2018-Jun-12 13:30N 48°11' W 004°30'2 3.5
2018-Jun-12 12:53N 48°09' W 004°32'2 4.9
2018-Jun-12 12:30N 48°09' W 004°35'2 4.7
2018-Jun-12 12:00N 48°10' W 004°38'2 4.3
2018-Jun-12 11:30N 48°11' W 004°41'2 4.8
2018-Jun-12 11:00N 48°12' W 004°44'3 5.9
2018-Jun-12 10:30N 48°13' W 004°48'3 5.1
2018-Jun-12 10:00N 48°16' W 004°47'3 6.5
2018-Jun-12 09:30N 48°17' W 004°43'3 6.1
2018-Jun-12 09:00N 48°18' W 004°39'2 3.8
2018-Jun-12 08:30N 48°17' W 004°36'1 0.0
2018-Jun-11 14:04N 48°17' W 004°35'0 0.1
2018-Jun-11 13:58N 48°17' W 004°35'0 0.0
2018-Jun-11 13:28N 48°17' W 004°35'0 0.0
2018-Jun-11 10:01N 48°17' W 004°35'0 0.0
2018-Jun-11 09:58N 48°17' W 004°35'1 2.1
2018-Jun-11 09:30N 48°18' W 004°36'0 0.2
2018-Jun-11 09:00N 48°18' W 004°36'1 2.1
2018-Jun-11 08:28N 48°17' W 004°35'0 0.0
2018-Jun-10 15:30N 48°17' W 004°35'2 3.5
2018-Jun-10 15:00N 48°19' W 004°35'1 1.6
2018-Jun-10 14:30N 48°19' W 004°35'5 5.5
2018-Jun-10 13:30N 48°22' W 004°28'1 1.6
2018-Jun-10 12:58N 48°22' W 004°27'1 1.1
2018-Jun-10 12:30N 48°23' W 004°26'  
Track history (hours):
 
Tides and Currents Weather Stations Pressure Air Temp Water Temp Dewpoint Dewpoint Depression Visibility Wind Speed Wind Dir Waves Ship Positions

Dolenn

Last reported at 2018-Jun-16 15:44 UTC. Time now 2018-Jun-17 22:16 UTC.
Position N 48°24' W 004°26'.

Length 11 m.

Type: Sailing vessel. MMSI: 227167050.

Date/timePositionNaut miles runAvg speedWind from/ knotsBaromVisibWave heightAir tempDewpointWater temp
2018-Jun-16 15:44N 48°24' W 004°26'0 0.3
2018-Jun-16 15:28N 48°24' W 004°26'0 0.0
2018-Jun-16 11:22N 48°24' W 004°26'0 1.1
2018-Jun-16 11:00N 48°23' W 004°26'3 5.3
2018-Jun-16 10:30N 48°22' W 004°29'3 5.2
2018-Jun-16 10:00N 48°21' W 004°33'0 0.7
2018-Jun-16 09:30N 48°21' W 004°33'2 3.7
2018-Jun-16 09:00N 48°20' W 004°35'2 3.2
2018-Jun-16 08:30N 48°18' W 004°36'2 0.1
2018-Jun-15 20:20N 48°17' W 004°35'0 0.0
2018-Jun-15 19:59N 48°17' W 004°35'1 2.6
2018-Jun-15 19:30N 48°17' W 004°37'2 3.8
2018-Jun-15 19:00N 48°16' W 004°39'2 3.6
2018-Jun-15 18:30N 48°15' W 004°38'2 4.4
2018-Jun-15 18:00N 48°12' W 004°38'1 2.6
2018-Jun-15 17:30N 48°12' W 004°36'2 3.7
2018-Jun-15 17:00N 48°11' W 004°36'2 3.8
2018-Jun-15 16:30N 48°09' W 004°34'1 2.7
2018-Jun-15 15:58N 48°09' W 004°32'2 5.0
2018-Jun-15 15:30N 48°11' W 004°30'2 3.2
2018-Jun-15 15:00N 48°11' W 004°27'3 5.4
2018-Jun-15 14:30N 48°08' W 004°25'2 3.3
2018-Jun-15 14:00N 48°09' W 004°23'4 0.2
2018-Jun-14 17:48N 48°06' W 004°20'1 2.8
2018-Jun-14 17:18N 48°07' W 004°21'2 5.1
2018-Jun-14 16:58N 48°08' W 004°24'3 5.3
2018-Jun-14 16:22N 48°08' W 004°28'2 4.7
2018-Jun-14 15:58N 48°08' W 004°31'3 5.6
2018-Jun-14 15:30N 48°09' W 004°35'4 7.2
2018-Jun-14 15:00N 48°11' W 004°40'3 6.8
2018-Jun-14 14:30N 48°12' W 004°44'2 3.0
2018-Jun-14 14:00N 48°14' W 004°46'2 4.3
2018-Jun-14 13:30N 48°14' W 004°49'2 4.6
2018-Jun-14 13:00N 48°13' W 004°52'2 4.6
2018-Jun-14 12:28N 48°14' W 004°56'3 6.5
2018-Jun-14 11:58N 48°16' W 005°00'6 6.4
2018-Jun-14 10:58N 48°19' W 005°08'5 4.6
2018-Jun-14 09:58N 48°23' W 005°10'3 0.1
2018-Jun-13 13:09N 48°26' W 005°08'2 7.8
2018-Jun-13 12:53N 48°24' W 005°08'6 6.8
2018-Jun-13 12:03N 48°20' W 005°03'1 6.7
2018-Jun-13 11:58N 48°19' W 005°02'3 6.9
2018-Jun-13 11:30N 48°17' W 004°59'4 7.3
2018-Jun-13 11:00N 48°15' W 004°54'3 6.5
2018-Jun-13 10:30N 48°14' W 004°50'2 4.4
2018-Jun-13 10:00N 48°13' W 004°47'2 4.6
2018-Jun-13 09:30N 48°13' W 004°43'1 2.9
2018-Jun-13 09:00N 48°13' W 004°41'1 2.6
2018-Jun-13 08:30N 48°12' W 004°40'2 5.0
2018-Jun-13 08:00N 48°10' W 004°38'2 3.6
2018-Jun-13 07:30N 48°09' W 004°35'4 6.7
2018-Jun-13 06:58N 48°11' W 004°31'2 4.9
2018-Jun-13 06:30N 48°13' W 004°30'0 0.0
2018-Jun-12 20:14N 48°13' W 004°30'0 0.0
2018-Jun-12 19:53N 48°13' W 004°30'0 0.0
2018-Jun-12 19:23N 48°13' W 004°30'0 0.0
2018-Jun-12 18:56N 48°13' W 004°30'0 0.0
2018-Jun-12 18:29N 48°13' W 004°30'0 0.0
2018-Jun-12 17:56N 48°13' W 004°30'0 0.0
2018-Jun-12 14:36N 48°13' W 004°30'0 1.4
2018-Jun-12 14:28N 48°14' W 004°30'1 2.7
2018-Jun-12 14:00N 48°12' W 004°29'2 3.6
2018-Jun-12 13:30N 48°11' W 004°30'2 3.5
2018-Jun-12 12:53N 48°09' W 004°32'2 4.9
2018-Jun-12 12:30N 48°09' W 004°35'2 4.7
2018-Jun-12 12:00N 48°10' W 004°38'2 4.3
2018-Jun-12 11:30N 48°11' W 004°41'2 4.8
2018-Jun-12 11:00N 48°12' W 004°44'3 5.9
2018-Jun-12 10:30N 48°13' W 004°48'3 5.1
2018-Jun-12 10:00N 48°16' W 004°47'3 6.5
2018-Jun-12 09:30N 48°17' W 004°43'3 6.1
2018-Jun-12 09:00N 48°18' W 004°39'2 3.8
2018-Jun-12 08:30N 48°17' W 004°36'1 0.0
2018-Jun-11 14:04N 48°17' W 004°35'0 0.1
2018-Jun-11 13:58N 48°17' W 004°35'0 0.0
2018-Jun-11 13:28N 48°17' W 004°35'0 0.0
2018-Jun-11 10:01N 48°17' W 004°35'0 0.0
2018-Jun-11 09:58N 48°17' W 004°35'1 2.1
2018-Jun-11 09:30N 48°18' W 004°36'0 0.2
2018-Jun-11 09:00N 48°18' W 004°36'1 2.1
2018-Jun-11 08:28N 48°17' W 004°35'0 0.0
2018-Jun-10 15:30N 48°17' W 004°35'2 3.5
2018-Jun-10 15:00N 48°19' W 004°35'1 1.6
2018-Jun-10 14:30N 48°19' W 004°35'5 5.5
2018-Jun-10 13:30N 48°22' W 004°28'1 1.6
2018-Jun-10 12:58N 48°22' W 004°27'1 1.1
2018-Jun-10 12:30N 48°23' W 004°26'  

Dump ship's entire track history